createdAt,value
2022-08-27T00:00:20.953Z,19.1
2022-08-27T00:01:21.816Z,19.1
2022-08-27T00:02:26.231Z,19.1
2022-08-27T00:03:19.366Z,19.1
2022-08-27T00:04:22.443Z,19.1
2022-08-27T00:05:24.163Z,19.1
2022-08-27T00:06:19.160Z,19.1
2022-08-27T00:07:20.690Z,19.1
2022-08-27T00:08:18.200Z,19.1
2022-08-27T00:09:31.013Z,19
2022-08-27T00:10:07.645Z,19
2022-08-27T00:11:22.890Z,19
2022-08-27T00:12:19.047Z,18.9
2022-08-27T00:13:24.331Z,19
2022-08-27T00:14:16.597Z,19
2022-08-27T00:15:22.162Z,19
2022-08-27T00:16:25.957Z,19
2022-08-27T00:17:22.189Z,19
2022-08-27T00:18:25.008Z,19.1
2022-08-27T00:19:28.092Z,19.1
2022-08-27T00:20:22.905Z,19.1
2022-08-27T00:21:19.347Z,19.1
2022-08-27T00:22:20.775Z,19.1
2022-08-27T00:23:17.217Z,19.1
2022-08-27T00:24:16.466Z,19.1
2022-08-27T00:26:18.671Z,19.1
2022-08-27T00:27:14.359Z,19.1
2022-08-27T00:28:14.434Z,19.1
2022-08-27T00:29:21.735Z,19.1
2022-08-27T00:30:21.380Z,19.1
2022-08-27T00:31:29.557Z,19.1
2022-08-27T00:32:20.000Z,19.1
2022-08-27T00:33:17.377Z,19.1
2022-08-27T00:34:17.291Z,19.1
2022-08-27T00:35:26.356Z,19.1
2022-08-27T00:36:17.222Z,19.1
2022-08-27T00:37:20.068Z,19.1
2022-08-27T00:38:20.278Z,19.1
2022-08-27T00:39:25.543Z,19.1
2022-08-27T00:40:09.959Z,19.1
2022-08-27T00:41:24.674Z,19.1
2022-08-27T00:42:15.136Z,19
2022-08-27T00:43:23.611Z,19
2022-08-27T00:44:13.224Z,19
2022-08-27T00:45:20.639Z,19.1
2022-08-27T00:46:22.412Z,18.9
2022-08-27T00:47:21.117Z,18.9
2022-08-27T00:48:24.463Z,18.9
2022-08-27T00:49:21.212Z,18.8
2022-08-27T00:50:18.705Z,18.8
2022-08-27T00:51:18.582Z,18.9
2022-08-27T00:52:23.076Z,18.9
2022-08-27T00:53:22.201Z,18.8
2022-08-27T00:54:23.172Z,18.8
2022-08-27T00:55:08.241Z,18.8
2022-08-27T00:56:16.073Z,18.8
2022-08-27T00:57:20.838Z,18.9
2022-08-27T00:58:18.341Z,18.8
2022-08-27T00:59:23.747Z,18.8
2022-08-27T01:00:19.596Z,18.8
2022-08-27T01:01:25.518Z,18.8
2022-08-27T01:02:06.999Z,18.8
2022-08-27T01:03:24.519Z,18.8
2022-08-27T01:04:19.026Z,18.8
2022-08-27T01:05:21.613Z,18.8
2022-08-27T01:06:20.167Z,18.9
2022-08-27T01:07:26.376Z,18.9
2022-08-27T01:08:24.695Z,18.8
2022-08-27T01:09:27.472Z,18.8
2022-08-27T01:10:07.400Z,18.8
2022-08-27T01:11:17.431Z,18.8
2022-08-27T01:12:20.938Z,18.7
2022-08-27T01:13:17.215Z,18.7
2022-08-27T01:14:13.136Z,18.7
2022-08-27T01:15:23.527Z,18.7
2022-08-27T01:16:24.786Z,18.7
2022-08-27T01:17:20.129Z,18.7
2022-08-27T01:18:18.888Z,18.6
2022-08-27T01:19:24.367Z,18.5
2022-08-27T01:20:06.766Z,18.5
2022-08-27T01:21:19.740Z,18.4
2022-08-27T01:22:27.136Z,18.4
2022-08-27T01:23:20.427Z,18.4
2022-08-27T01:24:21.134Z,18.4
2022-08-27T01:25:29.715Z,18.3
2022-08-27T01:26:19.066Z,18.4
2022-08-27T01:27:20.985Z,18.4
2022-08-27T01:28:17.073Z,18.4
2022-08-27T01:29:22.794Z,18.4
2022-08-27T01:30:22.025Z,18.4
2022-08-27T01:31:18.084Z,18.4
2022-08-27T01:32:18.263Z,18.4
2022-08-27T01:33:26.567Z,18.3
2022-08-27T01:34:09.510Z,18.4
2022-08-27T01:35:27.744Z,18.3
2022-08-27T01:36:19.679Z,18.3
2022-08-27T01:37:29.001Z,18.3
2022-08-27T01:38:34.792Z,18.3
2022-08-27T01:39:25.921Z,18.3
2022-08-27T01:40:08.455Z,18.3
2022-08-27T01:41:26.309Z,18.3
2022-08-27T01:42:20.073Z,18.3
2022-08-27T01:43:15.233Z,18.4
2022-08-27T01:44:20.903Z,18.4
2022-08-27T01:45:20.853Z,18.4
2022-08-27T01:46:19.793Z,18.4
2022-08-27T01:47:22.665Z,18.4
2022-08-27T01:48:18.429Z,18.4
2022-08-27T01:49:19.137Z,18.2
2022-08-27T01:50:17.862Z,18.2
2022-08-27T01:51:21.034Z,18.2
2022-08-27T01:52:20.713Z,18.2
2022-08-27T01:53:23.192Z,18.1
2022-08-27T01:54:21.388Z,18.1
2022-08-27T01:55:20.300Z,18.1
2022-08-27T01:56:23.971Z,18.2
2022-08-27T01:57:26.382Z,18.3
2022-08-27T01:58:19.396Z,18.3
2022-08-27T01:59:18.915Z,18.3
2022-08-27T02:00:22.491Z,18.3
2022-08-27T02:01:20.333Z,18.3
2022-08-27T02:02:17.381Z,18.4
2022-08-27T02:03:23.400Z,18.4
2022-08-27T02:04:19.501Z,18.4
2022-08-27T02:05:21.723Z,18.4
2022-08-27T02:06:21.182Z,18.3
2022-08-27T02:07:27.627Z,18.3
2022-08-27T02:08:19.757Z,18.3
2022-08-27T02:09:39.240Z,18.3
2022-08-27T02:10:08.522Z,18.3
2022-08-27T02:11:14.307Z,18.3
2022-08-27T02:12:16.139Z,18.2
2022-08-27T02:13:17.009Z,18.2
2022-08-27T02:14:17.120Z,18.3
2022-08-27T02:15:24.827Z,18.3
2022-08-27T02:16:18.113Z,18.3
2022-08-27T02:17:25.306Z,18.3
2022-08-27T02:18:17.048Z,18.3
2022-08-27T02:19:24.083Z,18.4
2022-08-27T02:20:21.975Z,18.3
2022-08-27T02:21:21.227Z,18.3
2022-08-27T02:22:22.167Z,18.4
2022-08-27T02:23:25.806Z,18.4
2022-08-27T02:24:18.953Z,18.1
2022-08-27T02:25:31.736Z,18.1
2022-08-27T02:26:23.328Z,18.2
2022-08-27T02:27:28.419Z,18.1
2022-08-27T02:28:19.501Z,18.1
2022-08-27T02:29:23.964Z,18
2022-08-27T02:30:21.637Z,18.1
2022-08-27T02:31:20.119Z,18.1
2022-08-27T02:32:36.045Z,18.1
2022-08-27T02:33:17.808Z,18.1
2022-08-27T02:34:23.504Z,18.1
2022-08-27T02:35:19.636Z,18.1
2022-08-27T02:36:17.520Z,18.1
2022-08-27T02:37:27.803Z,18.1
2022-08-27T02:38:17.843Z,18.1
2022-08-27T02:39:32.857Z,18.1
2022-08-27T02:40:09.742Z,18.1
2022-08-27T02:41:18.001Z,18.1
2022-08-27T02:42:24.681Z,18.1
2022-08-27T02:43:27.548Z,18.1
2022-08-27T02:44:22.349Z,18.1
2022-08-27T02:45:27.482Z,18.1
2022-08-27T02:46:27.152Z,18.1
2022-08-27T02:47:21.570Z,18.1
2022-08-27T02:48:15.608Z,18
2022-08-27T02:49:18.706Z,18
2022-08-27T02:50:20.121Z,18
2022-08-27T02:51:24.110Z,18
2022-08-27T02:52:29.302Z,18
2022-08-27T02:53:26.047Z,18
2022-08-27T02:54:22.298Z,18
2022-08-27T02:55:22.489Z,18
2022-08-27T02:56:26.123Z,18
2022-08-27T02:57:17.606Z,18
2022-08-27T02:58:21.686Z,18.1
2022-08-27T02:59:19.810Z,18.1
2022-08-27T03:00:23.348Z,18.1
2022-08-27T03:01:23.073Z,18
2022-08-27T03:02:17.181Z,18
2022-08-27T03:03:23.494Z,18.1
2022-08-27T03:04:19.400Z,18.1
2022-08-27T03:05:29.603Z,18.1
2022-08-27T03:06:17.329Z,18.1
2022-08-27T03:07:24.809Z,18
2022-08-27T03:08:16.167Z,17.9
2022-08-27T03:09:26.385Z,17.9
2022-08-27T03:10:09.048Z,17.9
2022-08-27T03:11:22.924Z,17.9
2022-08-27T03:12:14.362Z,17.9
2022-08-27T03:13:21.288Z,17.9
2022-08-27T03:14:16.741Z,17.9
2022-08-27T03:15:21.168Z,18
2022-08-27T03:17:21.309Z,17.9
2022-08-27T03:18:05.672Z,17.9
2022-08-27T03:19:28.304Z,17.9
2022-08-27T03:20:16.623Z,17.9
2022-08-27T03:21:17.923Z,17.9
2022-08-27T03:22:20.003Z,17.9
2022-08-27T03:23:21.137Z,17.9
2022-08-27T03:24:24.800Z,17.9
2022-08-27T03:25:19.496Z,17.9
2022-08-27T03:26:23.505Z,17.9
2022-08-27T03:27:17.586Z,17.9
2022-08-27T03:28:27.746Z,17.9
2022-08-27T03:29:16.367Z,17.8
2022-08-27T03:30:33.496Z,17.8
2022-08-27T03:31:19.963Z,17.8
2022-08-27T03:32:22.656Z,17.8
2022-08-27T03:33:15.496Z,17.9
2022-08-27T03:34:23.947Z,17.9
2022-08-27T03:35:18.342Z,17.8
2022-08-27T03:36:19.791Z,17.8
2022-08-27T03:37:17.051Z,17.8
2022-08-27T03:38:20.910Z,17.8
2022-08-27T03:39:20.777Z,17.9
2022-08-27T03:40:07.523Z,17.9
2022-08-27T03:41:22.867Z,17.9
2022-08-27T03:42:24.478Z,17.9
2022-08-27T03:43:21.824Z,17.9
2022-08-27T03:44:26.120Z,17.9
2022-08-27T03:45:21.399Z,17.9
2022-08-27T03:46:18.941Z,17.9
2022-08-27T03:47:18.358Z,17.9
2022-08-27T03:48:21.881Z,17.9
2022-08-27T03:49:24.577Z,17.9
2022-08-27T03:50:20.569Z,17.9
2022-08-27T03:51:18.893Z,17.9
2022-08-27T03:52:19.844Z,17.9
2022-08-27T03:53:18.315Z,17.9
2022-08-27T03:54:15.434Z,17.9
2022-08-27T03:55:26.397Z,17.9
2022-08-27T03:56:18.010Z,17.9
2022-08-27T03:57:20.475Z,17.9
2022-08-27T03:58:18.084Z,17.9
2022-08-27T03:59:31.055Z,17.9
2022-08-27T04:00:15.799Z,17.9
2022-08-27T04:01:26.034Z,17.9
2022-08-27T04:02:23.590Z,17.9
2022-08-27T04:03:21.870Z,17.9
2022-08-27T04:04:20.387Z,17.9
2022-08-27T04:05:21.231Z,17.9
2022-08-27T04:06:18.173Z,17.9
2022-08-27T04:07:19.838Z,17.9
2022-08-27T04:08:16.863Z,17.9
2022-08-27T04:09:31.062Z,17.9
2022-08-27T04:10:07.495Z,17.9
2022-08-27T04:11:25.837Z,17.8
2022-08-27T04:12:17.250Z,17.8
2022-08-27T04:13:25.424Z,17.8
2022-08-27T04:14:31.482Z,17.8
2022-08-27T04:15:25.248Z,17.8
2022-08-27T04:16:21.187Z,17.7
2022-08-27T04:17:18.406Z,17.6
2022-08-27T04:18:22.297Z,17.6
2022-08-27T04:19:22.895Z,17.7
2022-08-27T04:20:40.510Z,17.7
2022-08-27T04:21:21.646Z,17.7
2022-08-27T04:22:23.534Z,17.7
2022-08-27T04:23:19.378Z,17.7
2022-08-27T04:24:20.217Z,17.7
2022-08-27T04:25:27.706Z,17.7
2022-08-27T04:26:11.045Z,17.7
2022-08-27T04:27:26.151Z,17.7
2022-08-27T04:28:18.393Z,17.6
2022-08-27T04:29:27.833Z,17.6
2022-08-27T04:30:19.426Z,17.6
2022-08-27T04:31:26.365Z,17.6
2022-08-27T04:32:29.446Z,17.6
2022-08-27T04:33:25.759Z,17.6
2022-08-27T04:34:24.542Z,17.6
2022-08-27T04:35:22.409Z,17.6
2022-08-27T04:36:18.746Z,17.7
2022-08-27T04:37:27.345Z,17.6
2022-08-27T04:38:20.276Z,17.6
2022-08-27T04:39:30.045Z,17.6
2022-08-27T04:40:07.372Z,17.6
2022-08-27T04:41:18.843Z,17.6
2022-08-27T04:42:19.799Z,17.5
2022-08-27T04:43:23.611Z,17.5
2022-08-27T04:44:20.832Z,17.5
2022-08-27T04:45:32.940Z,17.4
2022-08-27T04:46:12.734Z,17.4
2022-08-27T04:47:23.613Z,17.4
2022-08-27T04:48:19.190Z,17.3
2022-08-27T04:49:24.139Z,17.3
2022-08-27T04:50:18.990Z,17.4
2022-08-27T04:51:23.615Z,17.3
2022-08-27T04:52:18.818Z,17.3
2022-08-27T04:53:26.259Z,17.4
2022-08-27T04:54:32.555Z,17.3
2022-08-27T04:55:20.197Z,17.4
2022-08-27T04:56:19.032Z,17.4
2022-08-27T04:57:22.058Z,17.4
2022-08-27T04:58:21.204Z,17.5
2022-08-27T04:59:22.267Z,17.5
2022-08-27T05:00:23.482Z,17.6
2022-08-27T05:01:23.091Z,17.5
2022-08-27T05:02:20.433Z,17.5
2022-08-27T05:03:17.147Z,17.6
2022-08-27T05:04:20.445Z,17.6
2022-08-27T05:05:22.601Z,17.6
2022-08-27T05:06:19.785Z,17.6
2022-08-27T05:07:20.527Z,17.6
2022-08-27T05:08:18.761Z,17.5
2022-08-27T05:09:29.008Z,17.5
2022-08-27T05:10:07.653Z,17.5
2022-08-27T05:11:22.364Z,17.5
2022-08-27T05:12:19.178Z,17.5
2022-08-27T05:13:21.547Z,17.5
2022-08-27T05:14:22.444Z,17.6
2022-08-27T05:15:29.194Z,17.6
2022-08-27T05:16:19.114Z,17.6
2022-08-27T05:17:23.106Z,17.6
2022-08-27T05:18:23.002Z,17.6
2022-08-27T05:19:22.973Z,17.8
2022-08-27T05:20:20.570Z,17.8
2022-08-27T05:21:20.415Z,17.9
2022-08-27T05:22:17.896Z,17.9
2022-08-27T05:23:16.614Z,17.9
2022-08-27T05:24:22.541Z,18
2022-08-27T05:25:24.847Z,18
2022-08-27T05:26:16.804Z,18
2022-08-27T05:27:19.726Z,18
2022-08-27T05:28:29.931Z,17.9
2022-08-27T05:29:20.726Z,17.9
2022-08-27T05:30:24.328Z,17.9
2022-08-27T05:31:27.902Z,17.9
2022-08-27T05:32:21.084Z,17.9
2022-08-27T05:33:23.289Z,17.9
2022-08-27T05:34:32.575Z,18
2022-08-27T05:35:19.995Z,18
2022-08-27T05:36:20.875Z,18
2022-08-27T05:37:20.683Z,18
2022-08-27T05:38:21.880Z,18
2022-08-27T05:39:26.265Z,18
2022-08-27T05:40:18.368Z,18.1
2022-08-27T05:41:24.236Z,18.1
2022-08-27T05:42:19.294Z,18.1
2022-08-27T05:43:17.967Z,18.1
2022-08-27T05:44:44.461Z,18.1
2022-08-27T05:45:20.433Z,18.1
2022-08-27T05:46:22.843Z,18.1
2022-08-27T05:47:18.572Z,18.1
2022-08-27T05:48:21.010Z,18.1
2022-08-27T05:49:23.580Z,18.1
2022-08-27T05:50:27.695Z,18.1
2022-08-27T05:51:29.607Z,18.1
2022-08-27T05:52:18.507Z,18.1
2022-08-27T05:53:22.647Z,18.1
2022-08-27T05:54:16.610Z,18.1
2022-08-27T05:55:22.996Z,18.1
2022-08-27T05:56:20.299Z,18.1
2022-08-27T05:57:17.527Z,18.1
2022-08-27T05:58:21.351Z,18.1
2022-08-27T05:59:21.547Z,18.1
2022-08-27T06:00:25.435Z,18.1
2022-08-27T06:01:24.259Z,18.1
2022-08-27T06:02:18.484Z,18.1
2022-08-27T06:03:19.741Z,18.1
2022-08-27T06:04:22.591Z,18.1
2022-08-27T06:05:23.231Z,18.1
2022-08-27T06:06:17.404Z,18.1
2022-08-27T06:07:16.370Z,18.2
2022-08-27T06:08:19.298Z,18.3
2022-08-27T06:09:24.259Z,18.2
2022-08-27T06:10:06.916Z,18.2
2022-08-27T06:11:22.165Z,18.2
2022-08-27T06:12:15.804Z,18.3
2022-08-27T06:13:16.493Z,18.3
2022-08-27T06:14:21.590Z,18.3
2022-08-27T06:15:17.402Z,18.3
2022-08-27T06:16:22.441Z,18.3
2022-08-27T06:17:21.963Z,18.3
2022-08-27T06:18:21.887Z,18.3
2022-08-27T06:19:22.655Z,18.3
2022-08-27T06:20:29.700Z,18.3
2022-08-27T06:21:28.975Z,18.3
2022-08-27T06:22:22.571Z,18.3
2022-08-27T06:23:31.959Z,18.3
2022-08-27T06:24:19.269Z,18.3
2022-08-27T06:25:18.174Z,18.3
2022-08-27T06:26:18.602Z,18.3
2022-08-27T06:27:23.578Z,18.3
2022-08-27T06:28:17.963Z,18.3
2022-08-27T06:29:19.596Z,18.3
2022-08-27T06:30:21.526Z,18.4
2022-08-27T06:31:14.790Z,18.4
2022-08-27T06:32:19.994Z,18.4
2022-08-27T06:33:21.192Z,18.4
2022-08-27T06:34:17.967Z,18.4
2022-08-27T06:35:28.557Z,18.5
2022-08-27T06:36:13.960Z,18.5
2022-08-27T06:37:23.127Z,18.5
2022-08-27T06:38:42.587Z,18.7
2022-08-27T06:39:19.818Z,18.7
2022-08-27T06:40:07.753Z,18.7
2022-08-27T06:41:25.926Z,18.8
2022-08-27T06:42:23.639Z,18.8
2022-08-27T06:43:25.383Z,18.8
2022-08-27T06:44:20.556Z,18.8
2022-08-27T06:45:22.026Z,19.6
2022-08-27T06:46:24.585Z,19.4
2022-08-27T06:47:23.327Z,19.4
2022-08-27T06:48:22.505Z,19.3
2022-08-27T06:49:22.047Z,19.3
2022-08-27T06:50:29.168Z,19.3
2022-08-27T06:51:18.092Z,19.1
2022-08-27T06:52:20.159Z,19
2022-08-27T06:53:28.378Z,19
2022-08-27T06:54:22.711Z,18.9
2022-08-27T06:55:23.717Z,18.9
2022-08-27T06:56:23.439Z,18.9
2022-08-27T06:57:19.439Z,18.9
2022-08-27T06:58:22.036Z,18.9
2022-08-27T06:59:18.307Z,18.9
2022-08-27T07:00:23.967Z,18.9
2022-08-27T07:01:18.695Z,18.9
2022-08-27T07:02:20.355Z,18.9
2022-08-27T07:03:19.224Z,19
2022-08-27T07:04:16.500Z,19
2022-08-27T07:05:18.655Z,19
2022-08-27T07:06:23.094Z,19
2022-08-27T07:07:48.742Z,19
2022-08-27T07:08:16.807Z,19
2022-08-27T07:09:27.428Z,19.1
2022-08-27T07:10:15.654Z,19.1
2022-08-27T07:12:19.303Z,19.1
2022-08-27T07:13:23.562Z,19.1
2022-08-27T07:14:21.714Z,19.1
2022-08-27T07:15:31.906Z,19.1
2022-08-27T07:16:20.951Z,19.2
2022-08-27T07:17:21.108Z,19.2
2022-08-27T07:18:20.110Z,19.3
2022-08-27T07:19:18.943Z,19.3
2022-08-27T07:20:21.012Z,19.4
2022-08-27T07:21:31.028Z,19.4
2022-08-27T07:22:22.483Z,19.4
2022-08-27T07:23:22.374Z,19.4
2022-08-27T07:24:25.182Z,19.4
2022-08-27T07:25:21.158Z,19.5
2022-08-27T07:26:22.473Z,19.6
2022-08-27T07:27:20.865Z,19.6
2022-08-27T07:28:26.070Z,19.5
2022-08-27T07:29:22.377Z,19.6
2022-08-27T07:30:18.549Z,19.6
2022-08-27T07:31:17.369Z,19.6
2022-08-27T07:32:17.572Z,19.6
2022-08-27T07:33:21.947Z,19.6
2022-08-27T07:34:24.292Z,19.6
2022-08-27T07:35:19.896Z,19.6
2022-08-27T07:36:27.125Z,19.6
2022-08-27T07:37:26.917Z,19.6
2022-08-27T07:38:19.705Z,19.6
2022-08-27T07:39:24.203Z,19.6
2022-08-27T07:40:20.689Z,19.6
2022-08-27T07:41:15.379Z,19.6
2022-08-27T07:42:22.569Z,19.6
2022-08-27T07:43:23.454Z,19.6
2022-08-27T07:44:33.047Z,19.6
2022-08-27T07:45:20.691Z,19.6
2022-08-27T07:46:22.636Z,19.6
2022-08-27T07:47:20.897Z,19.6
2022-08-27T07:48:20.550Z,19.5
2022-08-27T07:49:21.205Z,19.5
2022-08-27T07:50:21.207Z,19.4
2022-08-27T07:51:22.978Z,19.4
2022-08-27T07:52:22.546Z,19.4
2022-08-27T07:53:25.553Z,19.4
2022-08-27T07:54:19.235Z,19.4
2022-08-27T07:55:27.327Z,19.4
2022-08-27T07:56:19.094Z,19.5
2022-08-27T07:57:22.585Z,19.4
2022-08-27T07:58:22.899Z,19.4
2022-08-27T07:59:19.909Z,19.4
2022-08-27T08:00:16.945Z,19.4
2022-08-27T08:01:19.641Z,19.4
2022-08-27T08:02:23.251Z,19.4
2022-08-27T08:03:21.533Z,19.4
2022-08-27T08:04:24.924Z,19.4
2022-08-27T08:05:21.684Z,19.4
2022-08-27T08:06:20.419Z,19.4
2022-08-27T08:07:25.893Z,19.5
2022-08-27T08:08:17.779Z,19.5
2022-08-27T08:09:31.546Z,19.6
2022-08-27T08:10:09.779Z,19.6
2022-08-27T08:11:16.762Z,19.6
2022-08-27T08:12:30.549Z,19.6
2022-08-27T08:13:17.747Z,19.6
2022-08-27T08:14:18.390Z,19.7
2022-08-27T08:15:21.595Z,19.6
2022-08-27T08:16:26.260Z,19.6
2022-08-27T08:17:27.482Z,19.6
2022-08-27T08:18:24.216Z,19.6
2022-08-27T08:19:24.599Z,19.6
2022-08-27T08:20:58.937Z,19.6
2022-08-27T08:21:23.046Z,19.6
2022-08-27T08:22:19.104Z,19.5
2022-08-27T08:23:28.869Z,19.5
2022-08-27T08:24:07.418Z,19.5
2022-08-27T08:25:17.329Z,19.6
2022-08-27T08:26:22.416Z,19.6
2022-08-27T08:27:20.492Z,19.6
2022-08-27T08:28:22.234Z,19.6
2022-08-27T08:29:22.964Z,19.6
2022-08-27T08:30:18.283Z,19.6
2022-08-27T08:31:20.965Z,19.6
2022-08-27T08:32:17.772Z,19.6
2022-08-27T08:33:21.664Z,19.6
2022-08-27T08:34:22.805Z,19.6
2022-08-27T08:35:21.550Z,19.7
2022-08-27T08:36:21.685Z,19.6
2022-08-27T08:37:21.400Z,19.6
2022-08-27T08:38:20.858Z,19.6
2022-08-27T08:39:26.904Z,19.8
2022-08-27T08:40:10.473Z,19.8
2022-08-27T08:41:22.755Z,19.8
2022-08-27T08:42:15.277Z,19.8
2022-08-27T08:43:24.718Z,19.8
2022-08-27T08:44:19.079Z,19.9
2022-08-27T08:45:18.491Z,19.9
2022-08-27T08:46:23.098Z,19.9
2022-08-27T08:47:22.067Z,19.9
2022-08-27T08:48:16.951Z,19.9
2022-08-27T08:49:24.414Z,19.9
2022-08-27T08:50:24.304Z,19.9
2022-08-27T08:51:16.774Z,19.9
2022-08-27T08:52:34.699Z,19.9
2022-08-27T08:53:19.124Z,19.9
2022-08-27T08:54:19.413Z,19.9
2022-08-27T08:55:21.022Z,19.9
2022-08-27T08:56:24.459Z,19.9
2022-08-27T08:57:22.923Z,19.9
2022-08-27T08:58:23.142Z,19.9
2022-08-27T08:59:15.771Z,19.9
2022-08-27T09:00:17.934Z,20
2022-08-27T09:01:17.064Z,20
2022-08-27T09:02:19.047Z,20
2022-08-27T09:03:22.157Z,20
2022-08-27T09:04:20.855Z,20
2022-08-27T09:05:19.605Z,20
2022-08-27T09:06:19.488Z,20.1
2022-08-27T09:07:22.625Z,20.1
2022-08-27T09:08:43.820Z,20.1
2022-08-27T09:09:22.438Z,20.1
2022-08-27T09:10:08.463Z,20.1
2022-08-27T09:11:22.375Z,20.1
2022-08-27T09:12:26.788Z,20.1
2022-08-27T09:13:19.501Z,20.1
2022-08-27T09:14:27.292Z,20.2
2022-08-27T09:15:16.852Z,20.2
2022-08-27T09:16:20.309Z,20.3
2022-08-27T09:17:20.663Z,20.3
2022-08-27T09:18:19.173Z,20.3
2022-08-27T09:19:26.178Z,20.4
2022-08-27T09:20:19.707Z,20.4
2022-08-27T09:21:29.739Z,20.4
2022-08-27T09:22:15.204Z,20.6
2022-08-27T09:23:16.047Z,20.6
2022-08-27T09:24:19.653Z,20.6
2022-08-27T09:25:27.480Z,20.7
2022-08-27T09:26:19.639Z,20.7
2022-08-27T09:27:21.346Z,20.7
2022-08-27T09:28:20.285Z,20.9
2022-08-27T09:29:19.088Z,20.9
2022-08-27T09:30:22.270Z,21
2022-08-27T09:31:19.411Z,21
2022-08-27T09:32:23.641Z,20.8
2022-08-27T09:33:26.288Z,20.9
2022-08-27T09:34:18.440Z,21.1
2022-08-27T09:35:22.256Z,21.1
2022-08-27T09:36:24.042Z,21.5
2022-08-27T09:37:22.053Z,21.6
2022-08-27T09:38:16.579Z,21.7
2022-08-27T09:39:24.410Z,21.6
2022-08-27T09:40:25.565Z,21.6
2022-08-27T09:41:25.360Z,21.6
2022-08-27T09:42:21.094Z,21.9
2022-08-27T09:43:25.290Z,21.9
2022-08-27T09:44:19.410Z,22.1
2022-08-27T09:45:22.589Z,22.1
2022-08-27T09:46:20.731Z,22.1
2022-08-27T09:47:17.462Z,22.1
2022-08-27T09:48:20.244Z,22.2
2022-08-27T09:49:21.891Z,22.2
2022-08-27T09:50:20.764Z,22.2
2022-08-27T09:51:26.015Z,22.2
2022-08-27T09:52:18.603Z,22.5
2022-08-27T09:53:17.717Z,22.8
2022-08-27T09:54:22.140Z,22.9
2022-08-27T09:55:20.392Z,22.9
2022-08-27T09:56:28.563Z,23.1
2022-08-27T09:57:24.963Z,23.3
2022-08-27T09:58:27.396Z,23.3
2022-08-27T09:59:24.230Z,23.3
2022-08-27T10:00:19.435Z,23.3
2022-08-27T10:01:24.829Z,23.3
2022-08-27T10:02:19.613Z,23.1
2022-08-27T10:03:27.186Z,22.9
2022-08-27T10:04:28.252Z,22.9
2022-08-27T10:05:21.980Z,22.8
2022-08-27T10:06:21.412Z,22.8
2022-08-27T10:07:22.040Z,22.6
2022-08-27T10:08:13.394Z,22.6
2022-08-27T10:09:36.385Z,22.7
2022-08-27T10:10:08.000Z,22.7
2022-08-27T10:11:14.954Z,22.6
2022-08-27T10:12:23.652Z,22.6
2022-08-27T10:13:22.250Z,22.5
2022-08-27T10:14:17.655Z,22.5
2022-08-27T10:15:19.263Z,22.6
2022-08-27T10:16:20.894Z,22.8
2022-08-27T10:17:26.135Z,22.8
2022-08-27T10:18:24.625Z,22.8
2022-08-27T10:19:18.486Z,22.8
2022-08-27T10:20:34.994Z,22.9
2022-08-27T10:21:17.533Z,22.9
2022-08-27T10:22:21.133Z,22.8
2022-08-27T10:23:20.171Z,22.9
2022-08-27T10:24:19.462Z,22.9
2022-08-27T10:25:18.181Z,22.8
2022-08-27T10:26:23.244Z,22.8
2022-08-27T10:27:18.703Z,22.8
2022-08-27T10:28:27.536Z,22.8
2022-08-27T10:29:16.553Z,22.8
2022-08-27T10:30:23.982Z,22.9
2022-08-27T10:31:21.299Z,22.9
2022-08-27T10:32:24.324Z,23.1
2022-08-27T10:33:29.001Z,23.1
2022-08-27T10:34:22.513Z,23
2022-08-27T10:35:22.571Z,23.3
2022-08-27T10:36:18.024Z,23.3
2022-08-27T10:37:24.292Z,23.7
2022-08-27T10:38:14.532Z,23.7
2022-08-27T10:39:24.645Z,23.6
2022-08-27T10:40:08.525Z,23.9
2022-08-27T10:41:22.315Z,23.9
2022-08-27T10:42:20.840Z,23.9
2022-08-27T10:43:17.566Z,23.3
2022-08-27T10:44:18.778Z,23.5
2022-08-27T10:45:35.759Z,23.7
2022-08-27T10:46:16.507Z,23.7
2022-08-27T10:47:25.544Z,23.9
2022-08-27T10:48:18.695Z,23.8
2022-08-27T10:49:25.645Z,23.7
2022-08-27T10:50:16.565Z,23.7
2022-08-27T10:51:21.369Z,23.4
2022-08-27T10:52:20.046Z,23.5
2022-08-27T10:53:18.753Z,23.5
2022-08-27T10:54:24.413Z,23.4
2022-08-27T10:55:21.902Z,23.6
2022-08-27T10:56:22.027Z,23.9
2022-08-27T10:58:00.744Z,23.9
2022-08-27T10:58:21.349Z,24.4
2022-08-27T10:59:19.046Z,24.4
2022-08-27T11:00:23.597Z,24.6
2022-08-27T11:01:17.031Z,24.6
2022-08-27T11:02:24.160Z,24.6
2022-08-27T11:03:18.661Z,24.7
2022-08-27T11:04:22.048Z,24.8
2022-08-27T11:05:22.512Z,24.8
2022-08-27T11:06:19.559Z,24.8
2022-08-27T11:07:21.455Z,24.8
2022-08-27T11:08:20.679Z,24.9
2022-08-27T11:09:27.124Z,24.9
2022-08-27T11:10:11.070Z,25.2
2022-08-27T11:12:18.975Z,25.3
2022-08-27T11:12:18.984Z,25.3
2022-08-27T11:13:19.711Z,24.9
2022-08-27T11:14:22.127Z,25.1
2022-08-27T11:15:21.721Z,25.1
2022-08-27T11:16:21.979Z,24.3
2022-08-27T11:17:27.246Z,24.3
2022-08-27T11:18:27.327Z,24.9
2022-08-27T11:19:17.118Z,24.9
2022-08-27T11:20:20.902Z,25.1
2022-08-27T11:21:17.650Z,25.3
2022-08-27T11:22:30.082Z,25.3
2022-08-27T11:23:19.745Z,24.9
2022-08-27T11:24:21.578Z,24.9
2022-08-27T11:25:20.335Z,24.9
2022-08-27T11:26:20.811Z,24.4
2022-08-27T11:27:19.990Z,24.4
2022-08-27T11:28:31.700Z,24.4
2022-08-27T11:29:27.159Z,23.9
2022-08-27T11:30:16.370Z,23.9
2022-08-27T11:31:24.075Z,24.3
2022-08-27T11:32:19.636Z,24.6
2022-08-27T11:33:19.453Z,24.6
2022-08-27T11:34:21.024Z,24.8
2022-08-27T11:35:26.020Z,24.7
2022-08-27T11:36:18.357Z,24.7
2022-08-27T11:37:26.500Z,24.9
2022-08-27T11:38:23.581Z,25
2022-08-27T11:39:26.255Z,25
2022-08-27T11:40:07.889Z,25.1
2022-08-27T11:41:20.671Z,25.3
2022-08-27T11:42:23.482Z,25.3
2022-08-27T11:43:23.046Z,25.3
2022-08-27T11:44:18.699Z,24.9
2022-08-27T11:45:20.499Z,24.9
2022-08-27T11:46:29.369Z,24.9
2022-08-27T11:47:25.843Z,24.7
2022-08-27T11:48:25.179Z,24.6
2022-08-27T11:49:22.968Z,24.6
2022-08-27T11:50:22.772Z,24.6
2022-08-27T11:51:23.202Z,24.3
2022-08-27T11:52:22.976Z,24.2
2022-08-27T11:53:16.964Z,24.3
2022-08-27T11:54:22.378Z,24.4
2022-08-27T11:55:20.242Z,24.4
2022-08-27T11:56:20.162Z,24.4
2022-08-27T11:57:15.157Z,24.4
2022-08-27T11:58:22.579Z,24.4
2022-08-27T11:59:21.622Z,24.4
2022-08-27T12:00:20.489Z,24.4
2022-08-27T12:01:17.326Z,24.4
2022-08-27T12:02:25.418Z,24.5
2022-08-27T12:03:16.807Z,24.5
2022-08-27T12:04:23.146Z,24.7
2022-08-27T12:05:16.171Z,24.7
2022-08-27T12:06:22.943Z,24.7
2022-08-27T12:07:18.478Z,25.1
2022-08-27T12:08:18.867Z,25.2
2022-08-27T12:09:24.168Z,25.1
2022-08-27T12:10:07.359Z,25.1
2022-08-27T12:11:23.817Z,25
2022-08-27T12:12:18.407Z,25
2022-08-27T12:13:18.768Z,25.3
2022-08-27T12:14:23.446Z,25.4
2022-08-27T12:15:21.688Z,25.3
2022-08-27T12:16:18.434Z,25.3
2022-08-27T12:17:24.231Z,25.3
2022-08-27T12:18:21.210Z,25.4
2022-08-27T12:19:18.772Z,25.4
2022-08-27T12:20:22.765Z,25.6
2022-08-27T12:21:19.459Z,25.7
2022-08-27T12:22:20.839Z,25.7
2022-08-27T12:23:20.992Z,25.3
2022-08-27T12:24:21.646Z,25.2
2022-08-27T12:25:19.786Z,25.3
2022-08-27T12:26:21.715Z,25.3
2022-08-27T12:27:20.736Z,25.3
2022-08-27T12:28:12.045Z,25.5
2022-08-27T12:29:20.092Z,25.6
2022-08-27T12:30:16.397Z,25.6
2022-08-27T12:31:17.287Z,25.6
2022-08-27T12:32:25.680Z,25.6
2022-08-27T12:33:17.597Z,25.8
2022-08-27T12:34:23.775Z,25.9
2022-08-27T12:35:19.867Z,25.8
2022-08-27T12:36:31.876Z,25.8
2022-08-27T12:37:19.268Z,25.8
2022-08-27T12:38:23.958Z,25.9
2022-08-27T12:39:22.473Z,26
2022-08-27T12:40:07.900Z,26
2022-08-27T12:41:30.675Z,26.1
2022-08-27T12:42:18.173Z,26
2022-08-27T12:43:15.326Z,26.1
2022-08-27T12:44:18.108Z,26.1
2022-08-27T12:45:18.725Z,25.3
2022-08-27T12:46:19.161Z,25.6
2022-08-27T12:47:18.207Z,25.8
2022-08-27T12:48:19.301Z,25.8
2022-08-27T12:49:43.702Z,25.8
2022-08-27T12:50:16.167Z,25.9
2022-08-27T12:51:21.976Z,25.9
2022-08-27T12:52:19.960Z,25.9
2022-08-27T12:53:31.120Z,26.2
2022-08-27T12:54:28.862Z,26.3
2022-08-27T12:55:21.941Z,26.3
2022-08-27T12:56:19.194Z,26.3
2022-08-27T12:57:23.227Z,26.3
2022-08-27T12:58:20.230Z,26.3
2022-08-27T12:59:18.937Z,26.3
2022-08-27T13:00:16.098Z,26.2
2022-08-27T13:01:22.995Z,25.9
2022-08-27T13:02:20.866Z,26.1
2022-08-27T13:03:20.059Z,26.1
2022-08-27T13:04:20.627Z,26.4
2022-08-27T13:05:16.847Z,26.6
2022-08-27T13:06:17.791Z,26.8
2022-08-27T13:07:17.259Z,26.8
2022-08-27T13:08:18.400Z,26.6
2022-08-27T13:09:28.583Z,26.4
2022-08-27T13:10:09.472Z,26.3
2022-08-27T13:11:22.488Z,26.4
2022-08-27T13:12:25.126Z,26.8
2022-08-27T13:13:22.116Z,26.8
2022-08-27T13:14:24.902Z,26.9
2022-08-27T13:15:21.339Z,26.8
2022-08-27T13:16:24.347Z,26.8
2022-08-27T13:17:22.263Z,26.8
2022-08-27T13:18:20.820Z,26.8
2022-08-27T13:19:21.681Z,26.9
2022-08-27T13:20:16.753Z,26.9
2022-08-27T13:21:19.585Z,26.9
2022-08-27T13:22:19.530Z,25.9
2022-08-27T13:23:24.449Z,25.9
2022-08-27T13:24:22.859Z,25.6
2022-08-27T13:25:16.556Z,25.5